sensor_id;sensor_type;location;lat;lon;timestamp;P1;durP1;ratioP1;P2;durP2;ratioP2
24859;SDS011;12936;52.006;4.350;2023-12-22T00:02:15;22.57;;;2.97;;
24859;SDS011;12936;52.006;4.350;2023-12-22T00:04:45;16.87;;;2.60;;
24859;SDS011;12936;52.006;4.350;2023-12-22T00:07:15;20.77;;;4.53;;
24859;SDS011;12936;52.006;4.350;2023-12-22T00:09:47;17.83;;;2.97;;
24859;SDS011;12936;52.006;4.350;2023-12-22T00:12:39;13.80;;;3.80;;
24859;SDS011;12936;52.006;4.350;2023-12-22T00:15:08;27.80;;;3.97;;
24859;SDS011;12936;52.006;4.350;2023-12-22T00:17:38;19.47;;;3.30;;
24859;SDS011;12936;52.006;4.350;2023-12-22T00:20:10;23.30;;;3.37;;
24859;SDS011;12936;52.006;4.350;2023-12-22T00:22:41;14.33;;;2.57;;
24859;SDS011;12936;52.006;4.350;2023-12-22T00:25:10;13.83;;;2.90;;
24859;SDS011;12936;52.006;4.350;2023-12-22T00:27:44;16.03;;;2.80;;
24859;SDS011;12936;52.006;4.350;2023-12-22T00:30:13;14.50;;;3.20;;
24859;SDS011;12936;52.006;4.350;2023-12-22T00:32:42;16.80;;;3.47;;
24859;SDS011;12936;52.006;4.350;2023-12-22T00:35:12;17.17;;;2.80;;
24859;SDS011;12936;52.006;4.350;2023-12-22T00:37:41;19.37;;;3.43;;
24859;SDS011;12936;52.006;4.350;2023-12-22T00:40:10;16.00;;;3.07;;
24859;SDS011;12936;52.006;4.350;2023-12-22T00:42:39;20.40;;;3.73;;
24859;SDS011;12936;52.006;4.350;2023-12-22T00:45:08;18.90;;;3.90;;
24859;SDS011;12936;52.006;4.350;2023-12-22T00:47:39;21.80;;;3.23;;
24859;SDS011;12936;52.006;4.350;2023-12-22T00:50:16;17.87;;;2.53;;
24859;SDS011;12936;52.006;4.350;2023-12-22T00:52:45;12.20;;;2.20;;
24859;SDS011;12936;52.006;4.350;2023-12-22T00:55:13;18.03;;;3.23;;
24859;SDS011;12936;52.006;4.350;2023-12-22T00:57:43;14.77;;;2.87;;
24859;SDS011;12936;52.006;4.350;2023-12-22T01:00:12;17.40;;;2.77;;
24859;SDS011;12936;52.006;4.350;2023-12-22T01:02:40;19.10;;;2.37;;
24859;SDS011;12936;52.006;4.350;2023-12-22T01:05:12;11.60;;;2.23;;
24859;SDS011;12936;52.006;4.350;2023-12-22T01:07:42;12.40;;;2.07;;
24859;SDS011;12936;52.006;4.350;2023-12-22T01:10:14;9.37;;;2.23;;
24859;SDS011;12936;52.006;4.350;2023-12-22T01:13:06;15.07;;;2.47;;
24859;SDS011;12936;52.006;4.350;2023-12-22T01:15:37;16.40;;;2.50;;
24859;SDS011;12936;52.006;4.350;2023-12-22T01:18:06;11.10;;;1.70;;
24859;SDS011;12936;52.006;4.350;2023-12-22T01:20:36;18.90;;;2.87;;
24859;SDS011;12936;52.006;4.350;2023-12-22T01:26:11;16.43;;;2.50;;
24859;SDS011;12936;52.006;4.350;2023-12-22T01:28:44;14.50;;;2.97;;
24859;SDS011;12936;52.006;4.350;2023-12-22T01:31:17;20.33;;;3.73;;
24859;SDS011;12936;52.006;4.350;2023-12-22T01:34:06;14.93;;;3.37;;
24859;SDS011;12936;52.006;4.350;2023-12-22T01:36:35;24.77;;;3.17;;
24859;SDS011;12936;52.006;4.350;2023-12-22T01:39:26;21.77;;;3.40;;
24859;SDS011;12936;52.006;4.350;2023-12-22T01:41:56;25.67;;;3.40;;
24859;SDS011;12936;52.006;4.350;2023-12-22T01:44:26;21.87;;;3.37;;
24859;SDS011;12936;52.006;4.350;2023-12-22T01:46:54;15.47;;;2.60;;
24859;SDS011;12936;52.006;4.350;2023-12-22T01:49:26;16.17;;;2.83;;
24859;SDS011;12936;52.006;4.350;2023-12-22T01:51:56;19.20;;;3.00;;
24859;SDS011;12936;52.006;4.350;2023-12-22T01:54:27;13.67;;;3.30;;
24859;SDS011;12936;52.006;4.350;2023-12-22T01:57:00;18.50;;;2.97;;
24859;SDS011;12936;52.006;4.350;2023-12-22T01:59:29;13.50;;;2.63;;
24859;SDS011;12936;52.006;4.350;2023-12-22T02:02:05;18.33;;;2.43;;
24859;SDS011;12936;52.006;4.350;2023-12-22T02:05:20;17.17;;;3.43;;
24859;SDS011;12936;52.006;4.350;2023-12-22T02:07:58;18.40;;;3.07;;
24859;SDS011;12936;52.006;4.350;2023-12-22T02:10:29;17.80;;;3.10;;
24859;SDS011;12936;52.006;4.350;2023-12-22T02:13:19;10.90;;;1.90;;
24859;SDS011;12936;52.006;4.350;2023-12-22T02:15:51;11.93;;;2.80;;
24859;SDS011;12936;52.006;4.350;2023-12-22T02:18:30;12.40;;;2.10;;
24859;SDS011;12936;52.006;4.350;2023-12-22T02:21:02;15.87;;;2.57;;
24859;SDS011;12936;52.006;4.350;2023-12-22T02:23:36;23.97;;;3.30;;
24859;SDS011;12936;52.006;4.350;2023-12-22T02:26:46;18.50;;;3.20;;
24859;SDS011;12936;52.006;4.350;2023-12-22T02:29:18;18.67;;;2.93;;
24859;SDS011;12936;52.006;4.350;2023-12-22T02:31:49;20.80;;;3.00;;
24859;SDS011;12936;52.006;4.350;2023-12-22T02:34:23;20.97;;;2.60;;
24859;SDS011;12936;52.006;4.350;2023-12-22T02:36:53;12.17;;;3.27;;
24859;SDS011;12936;52.006;4.350;2023-12-22T02:39:26;10.20;;;2.30;;
24859;SDS011;12936;52.006;4.350;2023-12-22T02:41:56;14.53;;;2.20;;
24859;SDS011;12936;52.006;4.350;2023-12-22T02:44:25;12.07;;;2.30;;
24859;SDS011;12936;52.006;4.350;2023-12-22T02:46:57;14.40;;;2.10;;
24859;SDS011;12936;52.006;4.350;2023-12-22T02:49:35;12.83;;;2.40;;
24859;SDS011;12936;52.006;4.350;2023-12-22T02:52:05;16.47;;;2.83;;
24859;SDS011;12936;52.006;4.350;2023-12-22T02:54:37;16.57;;;2.57;;
24859;SDS011;12936;52.006;4.350;2023-12-22T02:57:08;20.27;;;2.80;;
24859;SDS011;12936;52.006;4.350;2023-12-22T02:59:38;12.17;;;3.00;;
24859;SDS011;12936;52.006;4.350;2023-12-22T03:02:27;11.70;;;2.77;;
24859;SDS011;12936;52.006;4.350;2023-12-22T03:05:15;19.67;;;2.63;;
24859;SDS011;12936;52.006;4.350;2023-12-22T03:08:04;12.80;;;2.17;;
24859;SDS011;12936;52.006;4.350;2023-12-22T03:10:37;17.47;;;2.60;;
24859;SDS011;12936;52.006;4.350;2023-12-22T03:13:25;15.77;;;2.60;;
24859;SDS011;12936;52.006;4.350;2023-12-22T03:16:08;13.47;;;2.60;;
24859;SDS011;12936;52.006;4.350;2023-12-22T03:18:39;12.80;;;3.20;;
24859;SDS011;12936;52.006;4.350;2023-12-22T03:21:15;18.00;;;2.53;;
24859;SDS011;12936;52.006;4.350;2023-12-22T03:23:46;12.00;;;2.57;;
24859;SDS011;12936;52.006;4.350;2023-12-22T03:26:18;12.67;;;2.87;;
24859;SDS011;12936;52.006;4.350;2023-12-22T03:29:09;18.60;;;2.80;;
24859;SDS011;12936;52.006;4.350;2023-12-22T03:31:38;17.13;;;3.27;;
24859;SDS011;12936;52.006;4.350;2023-12-22T03:34:07;17.40;;;3.10;;
24859;SDS011;12936;52.006;4.350;2023-12-22T03:36:36;13.63;;;2.40;;
24859;SDS011;12936;52.006;4.350;2023-12-22T03:39:05;12.77;;;2.13;;
24859;SDS011;12936;52.006;4.350;2023-12-22T03:41:35;17.20;;;2.70;;
24859;SDS011;12936;52.006;4.350;2023-12-22T03:44:05;11.50;;;2.30;;
24859;SDS011;12936;52.006;4.350;2023-12-22T03:46:35;13.60;;;3.13;;
24859;SDS011;12936;52.006;4.350;2023-12-22T03:49:12;12.83;;;2.27;;
24859;SDS011;12936;52.006;4.350;2023-12-22T03:51:40;12.33;;;2.37;;
24859;SDS011;12936;52.006;4.350;2023-12-22T03:54:11;13.63;;;2.03;;
24859;SDS011;12936;52.006;4.350;2023-12-22T03:57:10;17.27;;;2.57;;
24859;SDS011;12936;52.006;4.350;2023-12-22T03:59:38;10.70;;;2.13;;
24859;SDS011;12936;52.006;4.350;2023-12-22T04:02:09;17.00;;;3.47;;
24859;SDS011;12936;52.006;4.350;2023-12-22T04:04:39;17.37;;;2.50;;
24859;SDS011;12936;52.006;4.350;2023-12-22T04:07:13;14.57;;;2.53;;
24859;SDS011;12936;52.006;4.350;2023-12-22T04:09:44;14.07;;;2.03;;
24859;SDS011;12936;52.006;4.350;2023-12-22T04:12:16;12.07;;;2.40;;
24859;SDS011;12936;52.006;4.350;2023-12-22T04:14:45;11.87;;;1.70;;
24859;SDS011;12936;52.006;4.350;2023-12-22T04:17:19;23.03;;;3.13;;
24859;SDS011;12936;52.006;4.350;2023-12-22T04:19:47;21.07;;;2.57;;
24859;SDS011;12936;52.006;4.350;2023-12-22T04:22:17;19.67;;;2.70;;
24859;SDS011;12936;52.006;4.350;2023-12-22T04:24:46;15.13;;;2.43;;
24859;SDS011;12936;52.006;4.350;2023-12-22T04:27:15;18.67;;;2.63;;
24859;SDS011;12936;52.006;4.350;2023-12-22T04:29:44;18.70;;;3.00;;
24859;SDS011;12936;52.006;4.350;2023-12-22T04:32:32;16.37;;;2.83;;
24859;SDS011;12936;52.006;4.350;2023-12-22T04:35:01;18.53;;;2.83;;
24859;SDS011;12936;52.006;4.350;2023-12-22T04:37:31;18.53;;;3.27;;
24859;SDS011;12936;52.006;4.350;2023-12-22T04:40:03;17.00;;;2.73;;
24859;SDS011;12936;52.006;4.350;2023-12-22T04:42:34;18.13;;;2.50;;
24859;SDS011;12936;52.006;4.350;2023-12-22T04:45:03;17.10;;;2.87;;
24859;SDS011;12936;52.006;4.350;2023-12-22T04:47:33;16.77;;;2.60;;
24859;SDS011;12936;52.006;4.350;2023-12-22T04:50:02;22.73;;;2.80;;
24859;SDS011;12936;52.006;4.350;2023-12-22T04:52:31;22.57;;;2.70;;
24859;SDS011;12936;52.006;4.350;2023-12-22T04:55:00;19.17;;;3.43;;
24859;SDS011;12936;52.006;4.350;2023-12-22T04:57:30;28.83;;;3.60;;
24859;SDS011;12936;52.006;4.350;2023-12-22T05:00:02;29.17;;;3.73;;
24859;SDS011;12936;52.006;4.350;2023-12-22T05:02:33;14.97;;;3.00;;
24859;SDS011;12936;52.006;4.350;2023-12-22T05:05:02;21.77;;;3.53;;
24859;SDS011;12936;52.006;4.350;2023-12-22T05:07:31;18.63;;;3.63;;
24859;SDS011;12936;52.006;4.350;2023-12-22T05:09:59;20.27;;;3.47;;
24859;SDS011;12936;52.006;4.350;2023-12-22T05:12:28;20.17;;;3.60;;
24859;SDS011;12936;52.006;4.350;2023-12-22T05:14:57;33.17;;;5.23;;
24859;SDS011;12936;52.006;4.350;2023-12-22T05:17:27;24.57;;;4.17;;
24859;SDS011;12936;52.006;4.350;2023-12-22T05:19:56;31.00;;;5.60;;
24859;SDS011;12936;52.006;4.350;2023-12-22T05:22:25;31.53;;;4.50;;
24859;SDS011;12936;52.006;4.350;2023-12-22T05:25:01;22.17;;;4.67;;
24859;SDS011;12936;52.006;4.350;2023-12-22T05:27:32;35.63;;;5.33;;
24859;SDS011;12936;52.006;4.350;2023-12-22T05:30:01;31.77;;;5.77;;
24859;SDS011;12936;52.006;4.350;2023-12-22T05:32:34;32.07;;;5.63;;
24859;SDS011;12936;52.006;4.350;2023-12-22T05:35:04;36.60;;;5.40;;
24859;SDS011;12936;52.006;4.350;2023-12-22T05:37:33;30.90;;;5.10;;
24859;SDS011;12936;52.006;4.350;2023-12-22T05:40:01;29.70;;;5.40;;
24859;SDS011;12936;52.006;4.350;2023-12-22T05:42:29;28.43;;;5.67;;
24859;SDS011;12936;52.006;4.350;2023-12-22T05:44:57;36.67;;;6.13;;
24859;SDS011;12936;52.006;4.350;2023-12-22T05:47:25;38.37;;;5.80;;
24859;SDS011;12936;52.006;4.350;2023-12-22T05:49:55;34.90;;;6.20;;
24859;SDS011;12936;52.006;4.350;2023-12-22T05:52:23;34.30;;;6.07;;
24859;SDS011;12936;52.006;4.350;2023-12-22T05:54:51;33.97;;;6.10;;
24859;SDS011;12936;52.006;4.350;2023-12-22T05:57:20;26.10;;;4.70;;
24859;SDS011;12936;52.006;4.350;2023-12-22T05:59:48;29.87;;;5.53;;
24859;SDS011;12936;52.006;4.350;2023-12-22T06:02:16;40.60;;;7.80;;
24859;SDS011;12936;52.006;4.350;2023-12-22T06:04:44;39.10;;;6.50;;
24859;SDS011;12936;52.006;4.350;2023-12-22T06:07:14;41.67;;;6.60;;
24859;SDS011;12936;52.006;4.350;2023-12-22T06:09:43;33.03;;;6.07;;
24859;SDS011;12936;52.006;4.350;2023-12-22T06:12:11;33.57;;;5.70;;
24859;SDS011;12936;52.006;4.350;2023-12-22T06:14:39;42.43;;;6.93;;
24859;SDS011;12936;52.006;4.350;2023-12-22T06:17:07;36.43;;;5.33;;
24859;SDS011;12936;52.006;4.350;2023-12-22T06:19:35;40.90;;;6.43;;
24859;SDS011;12936;52.006;4.350;2023-12-22T06:22:04;42.80;;;5.87;;
24859;SDS011;12936;52.006;4.350;2023-12-22T06:24:35;31.17;;;6.17;;
24859;SDS011;12936;52.006;4.350;2023-12-22T06:27:03;30.80;;;5.10;;
24859;SDS011;12936;52.006;4.350;2023-12-22T06:29:33;36.37;;;6.17;;
24859;SDS011;12936;52.006;4.350;2023-12-22T06:32:01;34.47;;;5.50;;
24859;SDS011;12936;52.006;4.350;2023-12-22T06:34:32;29.50;;;4.57;;
24859;SDS011;12936;52.006;4.350;2023-12-22T06:37:01;42.17;;;6.43;;
24859;SDS011;12936;52.006;4.350;2023-12-22T06:39:29;32.20;;;4.90;;
24859;SDS011;12936;52.006;4.350;2023-12-22T06:41:59;37.37;;;5.47;;
24859;SDS011;12936;52.006;4.350;2023-12-22T06:44:27;34.80;;;6.13;;
24859;SDS011;12936;52.006;4.350;2023-12-22T06:46:57;35.97;;;5.17;;
24859;SDS011;12936;52.006;4.350;2023-12-22T06:49:26;21.60;;;3.53;;
24859;SDS011;12936;52.006;4.350;2023-12-22T06:51:54;29.97;;;5.40;;
24859;SDS011;12936;52.006;4.350;2023-12-22T06:54:22;26.10;;;4.53;;
24859;SDS011;12936;52.006;4.350;2023-12-22T06:56:51;35.13;;;5.67;;
24859;SDS011;12936;52.006;4.350;2023-12-22T06:59:21;28.47;;;4.70;;
24859;SDS011;12936;52.006;4.350;2023-12-22T07:01:50;31.60;;;4.30;;
24859;SDS011;12936;52.006;4.350;2023-12-22T07:07:32;39.17;;;4.80;;
24859;SDS011;12936;52.006;4.350;2023-12-22T07:10:02;33.90;;;5.37;;
24859;SDS011;12936;52.006;4.350;2023-12-22T07:12:31;27.33;;;4.43;;
24859;SDS011;12936;52.006;4.350;2023-12-22T07:15:00;38.73;;;6.53;;
24859;SDS011;12936;52.006;4.350;2023-12-22T07:17:28;28.97;;;5.13;;
24859;SDS011;12936;52.006;4.350;2023-12-22T07:19:57;25.13;;;5.07;;
24859;SDS011;12936;52.006;4.350;2023-12-22T07:22:25;29.53;;;4.10;;
24859;SDS011;12936;52.006;4.350;2023-12-22T07:24:54;24.67;;;4.40;;
24859;SDS011;12936;52.006;4.350;2023-12-22T07:27:24;28.50;;;4.77;;
24859;SDS011;12936;52.006;4.350;2023-12-22T07:29:53;26.03;;;4.10;;
24859;SDS011;12936;52.006;4.350;2023-12-22T07:32:24;31.13;;;4.50;;
24859;SDS011;12936;52.006;4.350;2023-12-22T07:34:53;21.50;;;4.20;;
24859;SDS011;12936;52.006;4.350;2023-12-22T07:37:21;19.93;;;3.27;;
24859;SDS011;12936;52.006;4.350;2023-12-22T07:39:53;25.43;;;5.27;;
24859;SDS011;12936;52.006;4.350;2023-12-22T07:42:24;20.40;;;3.83;;
24859;SDS011;12936;52.006;4.350;2023-12-22T07:44:54;21.57;;;4.10;;
24859;SDS011;12936;52.006;4.350;2023-12-22T07:47:23;26.67;;;3.33;;
24859;SDS011;12936;52.006;4.350;2023-12-22T07:49:53;24.87;;;4.20;;
24859;SDS011;12936;52.006;4.350;2023-12-22T07:52:21;30.30;;;3.47;;
24859;SDS011;12936;52.006;4.350;2023-12-22T07:54:49;19.07;;;3.53;;
24859;SDS011;12936;52.006;4.350;2023-12-22T07:57:17;19.37;;;3.77;;
24859;SDS011;12936;52.006;4.350;2023-12-22T07:59:45;20.00;;;3.73;;
24859;SDS011;12936;52.006;4.350;2023-12-22T08:02:13;20.03;;;3.20;;
24859;SDS011;12936;52.006;4.350;2023-12-22T08:04:43;22.30;;;2.87;;
24859;SDS011;12936;52.006;4.350;2023-12-22T08:07:11;18.70;;;3.47;;
24859;SDS011;12936;52.006;4.350;2023-12-22T08:09:40;26.43;;;3.53;;
24859;SDS011;12936;52.006;4.350;2023-12-22T08:12:08;28.67;;;3.37;;
24859;SDS011;12936;52.006;4.350;2023-12-22T08:14:36;13.23;;;2.63;;
24859;SDS011;12936;52.006;4.350;2023-12-22T08:17:04;14.83;;;3.13;;
24859;SDS011;12936;52.006;4.350;2023-12-22T08:19:33;16.57;;;3.27;;
24859;SDS011;12936;52.006;4.350;2023-12-22T08:22:06;20.83;;;2.10;;
24859;SDS011;12936;52.006;4.350;2023-12-22T08:24:34;19.87;;;2.37;;
24859;SDS011;12936;52.006;4.350;2023-12-22T08:27:03;10.27;;;2.00;;
24859;SDS011;12936;52.006;4.350;2023-12-22T08:29:32;16.50;;;2.43;;
24859;SDS011;12936;52.006;4.350;2023-12-22T08:32:01;14.40;;;2.27;;
24859;SDS011;12936;52.006;4.350;2023-12-22T08:34:30;18.93;;;1.93;;
24859;SDS011;12936;52.006;4.350;2023-12-22T08:36:58;11.07;;;2.10;;
24859;SDS011;12936;52.006;4.350;2023-12-22T08:39:28;15.37;;;2.53;;
24859;SDS011;12936;52.006;4.350;2023-12-22T08:41:57;22.80;;;3.87;;
24859;SDS011;12936;52.006;4.350;2023-12-22T08:44:26;12.67;;;2.10;;
24859;SDS011;12936;52.006;4.350;2023-12-22T08:46:54;16.43;;;2.30;;
24859;SDS011;12936;52.006;4.350;2023-12-22T08:49:24;14.03;;;1.97;;
24859;SDS011;12936;52.006;4.350;2023-12-22T08:51:53;13.27;;;1.97;;
24859;SDS011;12936;52.006;4.350;2023-12-22T08:54:21;15.87;;;2.10;;
24859;SDS011;12936;52.006;4.350;2023-12-22T08:56:50;12.57;;;1.83;;
24859;SDS011;12936;52.006;4.350;2023-12-22T08:59:19;19.57;;;2.57;;
24859;SDS011;12936;52.006;4.350;2023-12-22T09:01:47;11.27;;;2.17;;
24859;SDS011;12936;52.006;4.350;2023-12-22T09:04:15;11.80;;;1.73;;
24859;SDS011;12936;52.006;4.350;2023-12-22T09:06:43;17.00;;;2.27;;
24859;SDS011;12936;52.006;4.350;2023-12-22T09:09:11;10.10;;;1.80;;
24859;SDS011;12936;52.006;4.350;2023-12-22T09:11:39;12.20;;;2.07;;
24859;SDS011;12936;52.006;4.350;2023-12-22T09:14:10;14.50;;;2.13;;
24859;SDS011;12936;52.006;4.350;2023-12-22T09:16:39;8.83;;;2.03;;
24859;SDS011;12936;52.006;4.350;2023-12-22T09:19:09;12.10;;;2.00;;
24859;SDS011;12936;52.006;4.350;2023-12-22T09:21:37;9.13;;;1.20;;
24859;SDS011;12936;52.006;4.350;2023-12-22T09:24:05;17.87;;;1.93;;
24859;SDS011;12936;52.006;4.350;2023-12-22T09:26:33;8.93;;;1.53;;
24859;SDS011;12936;52.006;4.350;2023-12-22T09:29:01;5.47;;;1.47;;
24859;SDS011;12936;52.006;4.350;2023-12-22T09:31:31;11.17;;;1.97;;
24859;SDS011;12936;52.006;4.350;2023-12-22T09:34:00;19.47;;;2.77;;
24859;SDS011;12936;52.006;4.350;2023-12-22T09:36:29;16.33;;;2.40;;
24859;SDS011;12936;52.006;4.350;2023-12-22T09:38:58;14.10;;;1.80;;
24859;SDS011;12936;52.006;4.350;2023-12-22T09:41:27;7.40;;;1.97;;
24859;SDS011;12936;52.006;4.350;2023-12-22T09:43:55;9.63;;;2.00;;
24859;SDS011;12936;52.006;4.350;2023-12-22T09:46:25;9.40;;;1.63;;
24859;SDS011;12936;52.006;4.350;2023-12-22T09:48:56;14.47;;;2.13;;
24859;SDS011;12936;52.006;4.350;2023-12-22T09:51:24;16.17;;;2.40;;
24859;SDS011;12936;52.006;4.350;2023-12-22T09:53:54;12.37;;;2.10;;
24859;SDS011;12936;52.006;4.350;2023-12-22T09:56:26;11.40;;;1.73;;
24859;SDS011;12936;52.006;4.350;2023-12-22T09:58:56;11.60;;;1.77;;
24859;SDS011;12936;52.006;4.350;2023-12-22T10:01:25;13.37;;;1.80;;
24859;SDS011;12936;52.006;4.350;2023-12-22T10:03:56;9.70;;;1.50;;
24859;SDS011;12936;52.006;4.350;2023-12-22T10:06:24;7.63;;;1.50;;
24859;SDS011;12936;52.006;4.350;2023-12-22T10:08:53;11.70;;;1.73;;
24859;SDS011;12936;52.006;4.350;2023-12-22T10:11:23;16.77;;;2.10;;
24859;SDS011;12936;52.006;4.350;2023-12-22T10:13:52;12.07;;;2.33;;
24859;SDS011;12936;52.006;4.350;2023-12-22T10:16:22;9.60;;;1.70;;
24859;SDS011;12936;52.006;4.350;2023-12-22T10:18:52;9.23;;;1.97;;
24859;SDS011;12936;52.006;4.350;2023-12-22T10:21:23;13.60;;;2.00;;
24859;SDS011;12936;52.006;4.350;2023-12-22T10:23:51;15.43;;;2.20;;
24859;SDS011;12936;52.006;4.350;2023-12-22T10:26:19;10.40;;;2.47;;
24859;SDS011;12936;52.006;4.350;2023-12-22T10:28:48;7.03;;;1.27;;
24859;SDS011;12936;52.006;4.350;2023-12-22T10:31:17;7.43;;;1.30;;
24859;SDS011;12936;52.006;4.350;2023-12-22T10:33:46;8.03;;;1.63;;
24859;SDS011;12936;52.006;4.350;2023-12-22T10:36:15;14.93;;;2.30;;
24859;SDS011;12936;52.006;4.350;2023-12-22T10:38:44;10.67;;;1.97;;
24859;SDS011;12936;52.006;4.350;2023-12-22T10:41:12;11.57;;;1.97;;
24859;SDS011;12936;52.006;4.350;2023-12-22T10:43:41;12.60;;;1.40;;
24859;SDS011;12936;52.006;4.350;2023-12-22T10:46:10;9.67;;;1.90;;
24859;SDS011;12936;52.006;4.350;2023-12-22T10:48:39;12.07;;;2.40;;
24859;SDS011;12936;52.006;4.350;2023-12-22T10:51:09;16.13;;;2.53;;
24859;SDS011;12936;52.006;4.350;2023-12-22T10:53:40;16.00;;;2.57;;
24859;SDS011;12936;52.006;4.350;2023-12-22T10:56:11;15.87;;;2.23;;
24859;SDS011;12936;52.006;4.350;2023-12-22T10:58:40;11.97;;;2.30;;
24859;SDS011;12936;52.006;4.350;2023-12-22T11:01:12;15.10;;;2.97;;
24859;SDS011;12936;52.006;4.350;2023-12-22T11:03:43;14.27;;;2.57;;
24859;SDS011;12936;52.006;4.350;2023-12-22T11:06:12;11.50;;;1.83;;
24859;SDS011;12936;52.006;4.350;2023-12-22T11:08:44;9.23;;;1.40;;
24859;SDS011;12936;52.006;4.350;2023-12-22T11:11:20;21.30;;;3.50;;
24859;SDS011;12936;52.006;4.350;2023-12-22T11:13:57;17.03;;;2.57;;
24859;SDS011;12936;52.006;4.350;2023-12-22T11:16:27;12.40;;;2.17;;
24859;SDS011;12936;52.006;4.350;2023-12-22T11:18:56;12.80;;;2.50;;
24859;SDS011;12936;52.006;4.350;2023-12-22T11:21:24;12.10;;;2.73;;
24859;SDS011;12936;52.006;4.350;2023-12-22T11:23:53;18.80;;;3.00;;
24859;SDS011;12936;52.006;4.350;2023-12-22T11:26:26;16.27;;;2.60;;
24859;SDS011;12936;52.006;4.350;2023-12-22T11:28:55;11.47;;;2.20;;
24859;SDS011;12936;52.006;4.350;2023-12-22T11:31:31;20.53;;;2.40;;
24859;SDS011;12936;52.006;4.350;2023-12-22T11:33:59;9.03;;;2.03;;
24859;SDS011;12936;52.006;4.350;2023-12-22T11:36:37;13.43;;;2.30;;
24859;SDS011;12936;52.006;4.350;2023-12-22T11:39:05;11.67;;;1.57;;
24859;SDS011;12936;52.006;4.350;2023-12-22T11:41:35;11.67;;;2.30;;
24859;SDS011;12936;52.006;4.350;2023-12-22T11:44:06;12.67;;;2.57;;
24859;SDS011;12936;52.006;4.350;2023-12-22T11:46:36;11.13;;;1.67;;
24859;SDS011;12936;52.006;4.350;2023-12-22T11:49:04;10.90;;;2.07;;
24859;SDS011;12936;52.006;4.350;2023-12-22T11:51:33;9.43;;;1.90;;
24859;SDS011;12936;52.006;4.350;2023-12-22T11:54:02;9.83;;;1.90;;
24859;SDS011;12936;52.006;4.350;2023-12-22T11:56:30;16.00;;;2.17;;
24859;SDS011;12936;52.006;4.350;2023-12-22T11:59:00;14.40;;;2.27;;
24859;SDS011;12936;52.006;4.350;2023-12-22T12:01:28;15.97;;;2.57;;
24859;SDS011;12936;52.006;4.350;2023-12-22T12:03:59;14.90;;;2.20;;
24859;SDS011;12936;52.006;4.350;2023-12-22T12:06:31;16.20;;;2.43;;
24859;SDS011;12936;52.006;4.350;2023-12-22T12:09:04;9.97;;;2.33;;
24859;SDS011;12936;52.006;4.350;2023-12-22T12:14:42;12.80;;;2.77;;
24859;SDS011;12936;52.006;4.350;2023-12-22T12:17:11;16.27;;;1.67;;
24859;SDS011;12936;52.006;4.350;2023-12-22T12:19:44;14.37;;;2.17;;
24859;SDS011;12936;52.006;4.350;2023-12-22T12:22:15;15.43;;;1.90;;
24859;SDS011;12936;52.006;4.350;2023-12-22T12:24:44;15.10;;;2.30;;
24859;SDS011;12936;52.006;4.350;2023-12-22T12:27:16;12.20;;;2.13;;
24859;SDS011;12936;52.006;4.350;2023-12-22T12:29:46;16.23;;;2.87;;
24859;SDS011;12936;52.006;4.350;2023-12-22T12:32:15;16.97;;;2.97;;
24859;SDS011;12936;52.006;4.350;2023-12-22T12:34:43;14.53;;;2.10;;
24859;SDS011;12936;52.006;4.350;2023-12-22T12:37:11;16.23;;;2.63;;
24859;SDS011;12936;52.006;4.350;2023-12-22T12:39:40;18.47;;;2.37;;
24859;SDS011;12936;52.006;4.350;2023-12-22T12:42:10;9.40;;;1.90;;
24859;SDS011;12936;52.006;4.350;2023-12-22T12:44:42;16.87;;;2.20;;
24859;SDS011;12936;52.006;4.350;2023-12-22T12:47:15;18.70;;;2.70;;
24859;SDS011;12936;52.006;4.350;2023-12-22T12:49:43;13.00;;;2.87;;
24859;SDS011;12936;52.006;4.350;2023-12-22T12:52:12;12.10;;;2.03;;
24859;SDS011;12936;52.006;4.350;2023-12-22T12:54:41;24.40;;;2.80;;
24859;SDS011;12936;52.006;4.350;2023-12-22T12:57:13;18.33;;;3.23;;
24859;SDS011;12936;52.006;4.350;2023-12-22T12:59:44;12.57;;;2.60;;
24859;SDS011;12936;52.006;4.350;2023-12-22T13:02:15;19.97;;;2.87;;
24859;SDS011;12936;52.006;4.350;2023-12-22T13:04:43;20.53;;;2.57;;
24859;SDS011;12936;52.006;4.350;2023-12-22T13:07:11;18.57;;;2.87;;
24859;SDS011;12936;52.006;4.350;2023-12-22T13:09:40;29.10;;;3.93;;
24859;SDS011;12936;52.006;4.350;2023-12-22T13:12:09;15.73;;;2.63;;
24859;SDS011;12936;52.006;4.350;2023-12-22T13:14:36;18.07;;;3.20;;
24859;SDS011;12936;52.006;4.350;2023-12-22T13:17:05;16.17;;;2.20;;
24859;SDS011;12936;52.006;4.350;2023-12-22T13:19:35;19.47;;;3.00;;
24859;SDS011;12936;52.006;4.350;2023-12-22T13:22:03;20.20;;;3.33;;
24859;SDS011;12936;52.006;4.350;2023-12-22T13:24:31;16.67;;;3.50;;
24859;SDS011;12936;52.006;4.350;2023-12-22T13:27:00;23.00;;;4.33;;
24859;SDS011;12936;52.006;4.350;2023-12-22T13:29:30;12.90;;;2.27;;
24859;SDS011;12936;52.006;4.350;2023-12-22T13:32:14;22.83;;;3.80;;
24859;SDS011;12936;52.006;4.350;2023-12-22T13:34:50;17.53;;;2.53;;
24859;SDS011;12936;52.006;4.350;2023-12-22T13:37:19;14.83;;;2.40;;
24859;SDS011;12936;52.006;4.350;2023-12-22T13:39:48;26.60;;;3.27;;
24859;SDS011;12936;52.006;4.350;2023-12-22T13:42:18;24.83;;;4.20;;
24859;SDS011;12936;52.006;4.350;2023-12-22T13:44:48;18.83;;;3.20;;
24859;SDS011;12936;52.006;4.350;2023-12-22T13:47:19;15.97;;;3.00;;
24859;SDS011;12936;52.006;4.350;2023-12-22T13:49:47;16.87;;;2.57;;
24859;SDS011;12936;52.006;4.350;2023-12-22T13:52:27;15.20;;;2.67;;
24859;SDS011;12936;52.006;4.350;2023-12-22T13:54:57;16.83;;;2.87;;
24859;SDS011;12936;52.006;4.350;2023-12-22T13:57:27;20.60;;;2.83;;
24859;SDS011;12936;52.006;4.350;2023-12-22T13:59:56;24.93;;;3.63;;
24859;SDS011;12936;52.006;4.350;2023-12-22T14:02:24;23.93;;;3.30;;
24859;SDS011;12936;52.006;4.350;2023-12-22T14:04:53;23.07;;;3.17;;
24859;SDS011;12936;52.006;4.350;2023-12-22T14:07:22;23.00;;;3.30;;
24859;SDS011;12936;52.006;4.350;2023-12-22T14:09:50;18.87;;;3.20;;
24859;SDS011;12936;52.006;4.350;2023-12-22T14:12:18;20.40;;;3.07;;
24859;SDS011;12936;52.006;4.350;2023-12-22T14:14:54;13.60;;;2.57;;
24859;SDS011;12936;52.006;4.350;2023-12-22T14:17:23;12.00;;;2.33;;
24859;SDS011;12936;52.006;4.350;2023-12-22T14:19:50;12.93;;;2.27;;
24859;SDS011;12936;52.006;4.350;2023-12-22T14:22:20;16.80;;;3.07;;
24859;SDS011;12936;52.006;4.350;2023-12-22T14:24:48;15.50;;;2.67;;
24859;SDS011;12936;52.006;4.350;2023-12-22T14:27:16;14.60;;;2.73;;
24859;SDS011;12936;52.006;4.350;2023-12-22T14:29:45;15.00;;;1.90;;
24859;SDS011;12936;52.006;4.350;2023-12-22T14:32:13;23.53;;;3.13;;
24859;SDS011;12936;52.006;4.350;2023-12-22T14:34:45;16.53;;;3.03;;
24859;SDS011;12936;52.006;4.350;2023-12-22T14:37:13;15.57;;;3.67;;
24859;SDS011;12936;52.006;4.350;2023-12-22T14:39:44;25.77;;;3.30;;
24859;SDS011;12936;52.006;4.350;2023-12-22T14:42:13;21.80;;;3.13;;
24859;SDS011;12936;52.006;4.350;2023-12-22T14:44:42;17.13;;;3.00;;
24859;SDS011;12936;52.006;4.350;2023-12-22T14:47:10;14.07;;;3.10;;
24859;SDS011;12936;52.006;4.350;2023-12-22T14:49:40;16.50;;;2.33;;
24859;SDS011;12936;52.006;4.350;2023-12-22T14:52:08;18.20;;;2.90;;
24859;SDS011;12936;52.006;4.350;2023-12-22T14:54:36;17.23;;;3.10;;
24859;SDS011;12936;52.006;4.350;2023-12-22T14:57:06;9.27;;;2.00;;
24859;SDS011;12936;52.006;4.350;2023-12-22T14:59:34;22.20;;;3.80;;
24859;SDS011;12936;52.006;4.350;2023-12-22T15:02:04;23.40;;;4.33;;
24859;SDS011;12936;52.006;4.350;2023-12-22T15:04:32;12.50;;;2.47;;
24859;SDS011;12936;52.006;4.350;2023-12-22T15:07:03;25.00;;;3.00;;